sensor_id;sensor_type;location;lat;lon;timestamp;pressure;altitude;pressure_sealevel;temperature;humidity
62544;BME280;48597;49.030;1.822;2022-12-07T00:01:26;101376.44;;;18.53;39.70
62544;BME280;48597;49.030;1.822;2022-12-07T00:03:53;101368.66;;;18.54;39.58
62544;BME280;48597;49.030;1.822;2022-12-07T00:06:19;101369.47;;;18.54;39.74
62544;BME280;48597;49.030;1.822;2022-12-07T00:08:45;101371.09;;;18.55;39.46
62544;BME280;48597;49.030;1.822;2022-12-07T00:11:13;101368.59;;;18.57;39.22
62544;BME280;48597;49.030;1.822;2022-12-07T00:13:40;101365.75;;;18.57;39.34
62544;BME280;48597;49.030;1.822;2022-12-07T00:16:12;101360.44;;;18.60;39.21
62544;BME280;48597;49.030;1.822;2022-12-07T00:18:37;101354.75;;;18.60;39.16
62544;BME280;48597;49.030;1.822;2022-12-07T00:21:16;101356.34;;;18.61;39.14
62544;BME280;48597;49.030;1.822;2022-12-07T00:23:42;101358.34;;;18.64;39.01
62544;BME280;48597;49.030;1.822;2022-12-07T00:26:33;101353.47;;;18.64;38.86
62544;BME280;48597;49.030;1.822;2022-12-07T00:29:01;101349.38;;;18.65;38.80
62544;BME280;48597;49.030;1.822;2022-12-07T00:31:29;101341.19;;;18.67;38.83
62544;BME280;48597;49.030;1.822;2022-12-07T00:33:55;101335.47;;;18.67;38.74
62544;BME280;48597;49.030;1.822;2022-12-07T00:36:24;101330.13;;;18.69;38.73
62544;BME280;48597;49.030;1.822;2022-12-07T00:38:49;101335.38;;;18.71;38.67
62544;BME280;48597;49.030;1.822;2022-12-07T00:41:18;101332.09;;;18.72;38.73
62544;BME280;48597;49.030;1.822;2022-12-07T00:43:44;101332.09;;;18.72;38.54
62544;BME280;48597;49.030;1.822;2022-12-07T00:46:11;101325.16;;;18.73;38.62
62544;BME280;48597;49.030;1.822;2022-12-07T00:48:37;101317.41;;;18.74;38.55
62544;BME280;48597;49.030;1.822;2022-12-07T00:51:03;101318.22;;;18.74;38.50
62544;BME280;48597;49.030;1.822;2022-12-07T00:53:29;101320.25;;;18.74;38.65
62544;BME280;48597;49.030;1.822;2022-12-07T00:55:55;101325.16;;;18.73;38.50
62544;BME280;48597;49.030;1.822;2022-12-07T00:58:21;101323.13;;;18.74;38.72
62544;BME280;48597;49.030;1.822;2022-12-07T01:00:47;101314.97;;;18.72;38.35
62544;BME280;48597;49.030;1.822;2022-12-07T01:03:14;101324.78;;;18.71;38.57
62544;BME280;48597;49.030;1.822;2022-12-07T01:05:40;101318.25;;;18.71;38.72
62544;BME280;48597;49.030;1.822;2022-12-07T01:08:13;101319.50;;;18.70;38.81
62544;BME280;48597;49.030;1.822;2022-12-07T01:10:40;101319.97;;;18.68;38.76
62544;BME280;48597;49.030;1.822;2022-12-07T01:13:05;101308.97;;;18.67;38.75
62544;BME280;48597;49.030;1.822;2022-12-07T01:15:31;101308.16;;;18.66;38.74
62544;BME280;48597;49.030;1.822;2022-12-07T01:17:56;101309.38;;;18.65;38.82
62544;BME280;48597;49.030;1.822;2022-12-07T01:20:22;101309.00;;;18.63;38.96
62544;BME280;48597;49.030;1.822;2022-12-07T01:22:47;101315.16;;;18.62;38.81
62544;BME280;48597;49.030;1.822;2022-12-07T01:25:12;101302.91;;;18.61;38.82
62544;BME280;48597;49.030;1.822;2022-12-07T01:27:38;101298.44;;;18.60;38.80
62544;BME280;48597;49.030;1.822;2022-12-07T01:30:06;101309.06;;;18.60;38.79
62544;BME280;48597;49.030;1.822;2022-12-07T01:32:32;101302.53;;;18.59;38.77
62544;BME280;48597;49.030;1.822;2022-12-07T01:34:57;101300.50;;;18.60;38.86
62544;BME280;48597;49.030;1.822;2022-12-07T01:37:23;101302.53;;;18.59;38.82
62544;BME280;48597;49.030;1.822;2022-12-07T01:39:49;101298.44;;;18.60;38.65
62544;BME280;48597;49.030;1.822;2022-12-07T01:42:15;101295.59;;;18.60;38.63
62544;BME280;48597;49.030;1.822;2022-12-07T01:47:47;101298.00;;;18.62;38.45
62544;BME280;48597;49.030;1.822;2022-12-07T01:50:14;101292.31;;;18.62;38.55
62544;BME280;48597;49.030;1.822;2022-12-07T01:52:40;101289.44;;;18.62;38.49
62544;BME280;48597;49.030;1.822;2022-12-07T01:55:08;101295.16;;;18.62;38.37
62544;BME280;48597;49.030;1.822;2022-12-07T01:57:41;101295.97;;;18.62;38.42
62544;BME280;48597;49.030;1.822;2022-12-07T02:00:10;101285.78;;;18.61;38.47
62544;BME280;48597;49.030;1.822;2022-12-07T02:02:44;101293.94;;;18.63;38.42
62544;BME280;48597;49.030;1.822;2022-12-07T02:05:12;101295.97;;;18.62;38.26
62544;BME280;48597;49.030;1.822;2022-12-07T02:07:38;101293.94;;;18.63;38.16
62544;BME280;48597;49.030;1.822;2022-12-07T02:10:17;101289.03;;;18.63;38.20
62544;BME280;48597;49.030;1.822;2022-12-07T02:12:47;101294.72;;;18.63;38.17
62544;BME280;48597;49.030;1.822;2022-12-07T02:15:14;101293.50;;;18.64;38.24
62544;BME280;48597;49.030;1.822;2022-12-07T02:18:07;101294.72;;;18.63;38.16
62544;BME280;48597;49.030;1.822;2022-12-07T02:21:02;101296.34;;;18.64;38.06
62544;BME280;48597;49.030;1.822;2022-12-07T02:32:48;101285.75;;;18.65;38.09
62544;BME280;48597;49.030;1.822;2022-12-07T02:35:32;101298.78;;;18.66;38.05
62544;BME280;48597;49.030;1.822;2022-12-07T02:38:03;101285.75;;;18.65;38.16
62544;BME280;48597;49.030;1.822;2022-12-07T02:40:39;101295.91;;;18.66;38.15
62544;BME280;48597;49.030;1.822;2022-12-07T02:43:12;101292.25;;;18.65;38.14
62544;BME280;48597;49.030;1.822;2022-12-07T02:45:41;101287.78;;;18.64;37.91
62544;BME280;48597;49.030;1.822;2022-12-07T02:48:08;101287.78;;;18.64;38.05
62544;BME280;48597;49.030;1.822;2022-12-07T02:50:35;101291.88;;;18.63;38.20
62544;BME280;48597;49.030;1.822;2022-12-07T02:53:01;101289.44;;;18.62;38.21
62544;BME280;48597;49.030;1.822;2022-12-07T02:55:39;101291.50;;;18.61;38.08
62544;BME280;48597;49.030;1.822;2022-12-07T02:58:16;101289.88;;;18.60;38.18
62544;BME280;48597;49.030;1.822;2022-12-07T03:01:05;101288.25;;;18.59;38.17
62544;BME280;48597;49.030;1.822;2022-12-07T03:03:35;101283.78;;;18.58;38.25
62544;BME280;48597;49.030;1.822;2022-12-07T03:06:18;101290.31;;;18.59;38.28
62544;BME280;48597;49.030;1.822;2022-12-07T03:11:48;101283.78;;;18.58;38.10
62544;BME280;48597;49.030;1.822;2022-12-07T03:14:21;101277.25;;;18.57;38.07
62544;BME280;48597;49.030;1.822;2022-12-07T03:17:12;101286.22;;;18.60;38.18
62544;BME280;48597;49.030;1.822;2022-12-07T03:19:40;101275.59;;;18.60;38.08
62544;BME280;48597;49.030;1.822;2022-12-07T03:22:09;101279.28;;;18.61;38.08
62544;BME280;48597;49.030;1.822;2022-12-07T03:24:40;101270.28;;;18.62;38.12
62544;BME280;48597;49.030;1.822;2022-12-07T03:27:20;101265.38;;;18.63;37.99
62544;BME280;48597;49.030;1.822;2022-12-07T03:29:51;101261.28;;;18.64;37.92
62544;BME280;48597;49.030;1.822;2022-12-07T03:32:25;101265.31;;;18.66;37.67
62544;BME280;48597;49.030;1.822;2022-12-07T03:37:31;101261.59;;;18.69;37.82
62544;BME280;48597;49.030;1.822;2022-12-07T03:40:16;101257.47;;;18.70;37.78
62544;BME280;48597;49.030;1.822;2022-12-07T03:42:45;101261.16;;;18.71;37.88
62544;BME280;48597;49.030;1.822;2022-12-07T03:45:12;101264.38;;;18.73;37.88
62544;BME280;48597;49.030;1.822;2022-12-07T03:50:13;101266.00;;;18.74;37.76
62544;BME280;48597;49.030;1.822;2022-12-07T03:53:26;101260.28;;;18.74;37.77
62544;BME280;48597;49.030;1.822;2022-12-07T03:55:55;101258.25;;;18.74;37.91
62544;BME280;48597;49.030;1.822;2022-12-07T03:58:23;101255.38;;;18.74;37.81
62544;BME280;48597;49.030;1.822;2022-12-07T04:00:50;101248.88;;;18.74;37.92
62544;BME280;48597;49.030;1.822;2022-12-07T04:03:15;101254.56;;;18.74;37.92
62544;BME280;48597;49.030;1.822;2022-12-07T04:05:42;101252.97;;;18.73;37.76
62544;BME280;48597;49.030;1.822;2022-12-07T04:08:08;101257.44;;;18.74;37.86
62544;BME280;48597;49.030;1.822;2022-12-07T04:10:33;101260.28;;;18.74;37.83
62544;BME280;48597;49.030;1.822;2022-12-07T04:12:59;101257.88;;;18.72;37.97
62544;BME280;48597;49.030;1.822;2022-12-07T04:15:24;101261.53;;;18.73;37.75
62544;BME280;48597;49.030;1.822;2022-12-07T04:17:50;101251.34;;;18.72;37.82
62544;BME280;48597;49.030;1.822;2022-12-07T04:20:16;101252.16;;;18.72;37.94
62544;BME280;48597;49.030;1.822;2022-12-07T04:22:42;101255.44;;;18.71;37.93
62544;BME280;48597;49.030;1.822;2022-12-07T04:25:07;101256.69;;;18.70;38.03
62544;BME280;48597;49.030;1.822;2022-12-07T04:27:33;101244.47;;;18.69;37.92
62544;BME280;48597;49.030;1.822;2022-12-07T04:29:59;101257.13;;;18.68;37.92
62544;BME280;48597;49.030;1.822;2022-12-07T04:32:25;101249.81;;;18.67;37.92
62544;BME280;48597;49.030;1.822;2022-12-07T04:34:50;101256.75;;;18.66;37.98
62544;BME280;48597;49.030;1.822;2022-12-07T04:37:16;101249.44;;;18.65;38.10
62544;BME280;48597;49.030;1.822;2022-12-07T04:39:43;101244.16;;;18.64;38.01
62544;BME280;48597;49.030;1.822;2022-12-07T04:42:10;101257.63;;;18.63;38.09
62544;BME280;48597;49.030;1.822;2022-12-07T04:44:35;101255.56;;;18.64;37.84
62544;BME280;48597;49.030;1.822;2022-12-07T04:47:01;101254.75;;;18.63;37.83
62544;BME280;48597;49.030;1.822;2022-12-07T04:49:27;101237.63;;;18.63;37.83
62544;BME280;48597;49.030;1.822;2022-12-07T04:51:52;101249.06;;;18.63;37.94
62544;BME280;48597;49.030;1.822;2022-12-07T04:54:18;101241.28;;;18.64;37.92
62544;BME280;48597;49.030;1.822;2022-12-07T04:56:44;101244.16;;;18.64;37.76
62544;BME280;48597;49.030;1.822;2022-12-07T04:59:11;101242.09;;;18.64;37.94
62544;BME280;48597;49.030;1.822;2022-12-07T05:01:36;101235.59;;;18.64;37.85
62544;BME280;48597;49.030;1.822;2022-12-07T05:04:02;101233.53;;;18.64;37.82
62544;BME280;48597;49.030;1.822;2022-12-07T05:06:27;101242.91;;;18.65;37.73
62544;BME280;48597;49.030;1.822;2022-12-07T05:08:53;101233.09;;;18.66;37.63
62544;BME280;48597;49.030;1.822;2022-12-07T05:11:18;101235.97;;;18.66;37.73
62544;BME280;48597;49.030;1.822;2022-12-07T05:14:04;101240.44;;;18.67;37.70
62544;BME280;48597;49.030;1.822;2022-12-07T05:16:30;101238.38;;;18.67;37.62
62544;BME280;48597;49.030;1.822;2022-12-07T05:18:55;101234.72;;;18.67;37.75
62544;BME280;48597;49.030;1.822;2022-12-07T05:21:21;101244.09;;;18.67;37.72
62544;BME280;48597;49.030;1.822;2022-12-07T05:23:47;101243.28;;;18.67;37.66
62544;BME280;48597;49.030;1.822;2022-12-07T05:26:12;101242.47;;;18.66;37.70
62544;BME280;48597;49.030;1.822;2022-12-07T05:28:38;101249.00;;;18.67;37.80
62544;BME280;48597;49.030;1.822;2022-12-07T05:31:04;101255.94;;;18.66;37.78
62544;BME280;48597;49.030;1.822;2022-12-07T05:33:29;101246.56;;;18.65;37.71
62544;BME280;48597;49.030;1.822;2022-12-07T05:35:54;101249.84;;;18.64;37.75
62544;BME280;48597;49.030;1.822;2022-12-07T05:38:20;101248.25;;;18.63;37.80
62544;BME280;48597;49.030;1.822;2022-12-07T05:40:45;101249.91;;;18.60;37.78
62544;BME280;48597;49.030;1.822;2022-12-07T05:43:11;101231.97;;;18.60;37.84
62544;BME280;48597;49.030;1.822;2022-12-07T05:45:36;101235.63;;;18.60;37.75
62544;BME280;48597;49.030;1.822;2022-12-07T05:48:02;101231.56;;;18.57;38.04
62544;BME280;48597;49.030;1.822;2022-12-07T05:50:27;101232.78;;;18.56;37.78
62544;BME280;48597;49.030;1.822;2022-12-07T05:52:53;101228.78;;;18.54;37.94
62544;BME280;48597;49.030;1.822;2022-12-07T05:55:19;101225.13;;;18.53;37.82
62544;BME280;48597;49.030;1.822;2022-12-07T05:57:44;101230.84;;;18.53;37.74
62544;BME280;48597;49.030;1.822;2022-12-07T06:00:29;101222.69;;;18.52;37.80
62544;BME280;48597;49.030;1.822;2022-12-07T06:02:55;101225.56;;;18.52;37.71
62544;BME280;48597;49.030;1.822;2022-12-07T06:05:20;101219.84;;;18.52;37.56
62544;BME280;48597;49.030;1.822;2022-12-07T06:07:46;101221.09;;;18.51;37.90
62544;BME280;48597;49.030;1.822;2022-12-07T06:10:11;101219.91;;;18.48;37.83
62544;BME280;48597;49.030;1.822;2022-12-07T06:12:37;101224.00;;;18.47;37.73
62544;BME280;48597;49.030;1.822;2022-12-07T06:15:05;101232.97;;;18.46;37.89
62544;BME280;48597;49.030;1.822;2022-12-07T06:17:31;101227.69;;;18.44;37.80
62544;BME280;48597;49.030;1.822;2022-12-07T06:19:57;101225.31;;;18.43;37.85
62544;BME280;48597;49.030;1.822;2022-12-07T06:22:22;101222.06;;;18.41;37.95
62544;BME280;48597;49.030;1.822;2022-12-07T06:24:48;101224.13;;;18.40;37.81
62544;BME280;48597;49.030;1.822;2022-12-07T06:27:13;101228.22;;;18.39;37.89
62544;BME280;48597;49.030;1.822;2022-12-07T06:29:39;101220.88;;;18.38;37.80
62544;BME280;48597;49.030;1.822;2022-12-07T06:32:05;101227.41;;;18.39;38.00
62544;BME280;48597;49.030;1.822;2022-12-07T06:34:30;101228.22;;;18.39;37.95
62544;BME280;48597;49.030;1.822;2022-12-07T06:36:56;101237.56;;;18.40;37.91
62544;BME280;48597;49.030;1.822;2022-12-07T06:39:25;101238.81;;;18.39;37.72
62544;BME280;48597;49.030;1.822;2022-12-07T06:41:51;101242.47;;;18.39;37.69
62544;BME280;48597;49.030;1.822;2022-12-07T06:44:18;101244.91;;;18.41;37.70
62544;BME280;48597;49.030;1.822;2022-12-07T06:46:44;101243.66;;;18.42;37.54
62544;BME280;48597;49.030;1.822;2022-12-07T06:49:10;101251.00;;;18.43;37.71
62544;BME280;48597;49.030;1.822;2022-12-07T06:51:35;101255.44;;;18.44;37.55
62544;BME280;48597;49.030;1.822;2022-12-07T06:54:03;101252.97;;;18.46;37.62
62544;BME280;48597;49.030;1.822;2022-12-07T06:56:29;101251.72;;;18.47;37.50
62544;BME280;48597;49.030;1.822;2022-12-07T06:58:55;101242.72;;;18.48;37.24
62544;BME280;48597;49.030;1.822;2022-12-07T07:01:20;101241.06;;;18.51;37.32
62544;BME280;48597;49.030;1.822;2022-12-07T07:03:46;101241.44;;;18.53;37.37
62544;BME280;48597;49.030;1.822;2022-12-07T07:06:12;101241.81;;;18.55;37.09
62544;BME280;48597;49.030;1.822;2022-12-07T07:08:39;101247.88;;;18.57;37.17
62544;BME280;48597;49.030;1.822;2022-12-07T07:11:05;101237.69;;;18.60;37.09
62544;BME280;48597;49.030;1.822;2022-12-07T07:13:31;101239.28;;;18.61;37.19
62544;BME280;48597;49.030;1.822;2022-12-07T07:15:57;101242.09;;;18.64;37.10
62544;BME280;48597;49.030;1.822;2022-12-07T07:18:23;101247.81;;;18.64;37.08
62544;BME280;48597;49.030;1.822;2022-12-07T07:20:50;101249.00;;;18.67;37.15
62544;BME280;48597;49.030;1.822;2022-12-07T07:23:15;101251.03;;;18.66;37.20
62544;BME280;48597;49.030;1.822;2022-12-07T07:25:41;101254.72;;;18.67;37.27
62544;BME280;48597;49.030;1.822;2022-12-07T07:28:06;101260.41;;;18.67;37.23
62544;BME280;48597;49.030;1.822;2022-12-07T07:30:32;101261.97;;;18.71;38.86
62544;BME280;48597;49.030;1.822;2022-12-07T07:32:58;101257.47;;;18.70;39.06
62544;BME280;48597;49.030;1.822;2022-12-07T07:35:25;101262.84;;;18.68;39.59
62544;BME280;48597;49.030;1.822;2022-12-07T07:37:51;101270.59;;;18.68;39.67
62544;BME280;48597;49.030;1.822;2022-12-07T07:40:16;101281.22;;;18.67;39.72
62544;BME280;48597;49.030;1.822;2022-12-07T07:42:42;101270.22;;;18.66;40.32
62544;BME280;48597;49.030;1.822;2022-12-07T07:45:09;101274.69;;;18.67;40.12
62544;BME280;48597;49.030;1.822;2022-12-07T07:47:34;101278.78;;;18.66;40.10
62544;BME280;48597;49.030;1.822;2022-12-07T07:50:00;101269.00;;;18.67;40.21
62544;BME280;48597;49.030;1.822;2022-12-07T07:52:26;101267.75;;;18.68;40.39
62544;BME280;48597;49.030;1.822;2022-12-07T07:54:51;101265.31;;;18.66;40.29
62544;BME280;48597;49.030;1.822;2022-12-07T07:57:17;101267.31;;;18.69;40.22
62544;BME280;48597;49.030;1.822;2022-12-07T07:59:43;101279.09;;;18.71;40.55
62544;BME280;48597;49.030;1.822;2022-12-07T08:02:16;101260.72;;;18.72;40.52
62544;BME280;48597;49.030;1.822;2022-12-07T08:04:44;101266.81;;;18.74;40.49
62544;BME280;48597;49.030;1.822;2022-12-07T08:07:10;101249.69;;;18.74;40.47
62544;BME280;48597;49.030;1.822;2022-12-07T08:09:37;101257.81;;;18.76;40.52
62544;BME280;48597;49.030;1.822;2022-12-07T08:12:03;101261.03;;;18.78;40.57
62544;BME280;48597;49.030;1.822;2022-12-07T08:14:28;101262.66;;;18.79;40.44
62544;BME280;48597;49.030;1.822;2022-12-07T08:16:55;101260.63;;;18.79;40.48
62544;BME280;48597;49.030;1.822;2022-12-07T08:19:20;101257.75;;;18.79;40.35
62544;BME280;48597;49.030;1.822;2022-12-07T08:21:46;101259.38;;;18.80;40.61
62544;BME280;48597;49.030;1.822;2022-12-07T08:24:12;101259.38;;;18.80;40.51
62544;BME280;48597;49.030;1.822;2022-12-07T08:26:37;101268.31;;;18.82;40.31
62544;BME280;48597;49.030;1.822;2022-12-07T08:29:02;101276.50;;;18.80;40.43
62544;BME280;48597;49.030;1.822;2022-12-07T08:31:28;101272.84;;;18.80;40.65
62544;BME280;48597;49.030;1.822;2022-12-07T08:33:54;101269.19;;;18.79;40.72
62544;BME280;48597;49.030;1.822;2022-12-07T08:36:19;101277.38;;;18.77;40.67
62544;BME280;48597;49.030;1.822;2022-12-07T08:38:45;101285.50;;;18.79;40.76
62544;BME280;48597;49.030;1.822;2022-12-07T08:41:11;101280.59;;;18.79;40.62
62544;BME280;48597;49.030;1.822;2022-12-07T08:43:36;101279.00;;;18.78;40.64
62544;BME280;48597;49.030;1.822;2022-12-07T08:48:49;101271.66;;;18.77;40.63
62544;BME280;48597;49.030;1.822;2022-12-07T08:51:18;101272.47;;;18.78;40.56
62544;BME280;48597;49.030;1.822;2022-12-07T08:53:44;101270.47;;;18.75;40.64
62544;BME280;48597;49.030;1.822;2022-12-07T08:56:10;101279.03;;;18.75;40.48
62544;BME280;48597;49.030;1.822;2022-12-07T08:58:36;101272.94;;;18.73;40.39
62544;BME280;48597;49.030;1.822;2022-12-07T09:01:02;101276.63;;;18.73;40.82
62544;BME280;48597;49.030;1.822;2022-12-07T09:03:29;101266.84;;;18.71;40.66
62544;BME280;48597;49.030;1.822;2022-12-07T09:05:54;101275.00;;;18.72;40.67
62544;BME280;48597;49.030;1.822;2022-12-07T09:08:21;101276.63;;;18.73;40.89
62544;BME280;48597;49.030;1.822;2022-12-07T09:10:48;101271.72;;;18.74;41.18
62544;BME280;48597;49.030;1.822;2022-12-07T09:13:14;101277.84;;;18.72;41.13
62544;BME280;48597;49.030;1.822;2022-12-07T09:15:40;101272.56;;;18.71;41.00
62544;BME280;48597;49.030;1.822;2022-12-07T09:18:05;101279.53;;;18.70;41.17
62544;BME280;48597;49.030;1.822;2022-12-07T09:20:31;101270.94;;;18.70;41.12
62544;BME280;48597;49.030;1.822;2022-12-07T09:22:56;101280.78;;;18.69;40.99
62544;BME280;48597;49.030;1.822;2022-12-07T09:25:21;101274.28;;;18.68;41.23
62544;BME280;48597;49.030;1.822;2022-12-07T09:27:47;101275.06;;;18.69;41.05
62544;BME280;48597;49.030;1.822;2022-12-07T09:30:13;101284.44;;;18.69;41.19
62544;BME280;48597;49.030;1.822;2022-12-07T09:32:38;101275.44;;;18.71;41.11
62544;BME280;48597;49.030;1.822;2022-12-07T09:35:04;101277.03;;;18.72;41.19
62544;BME280;48597;49.030;1.822;2022-12-07T09:37:29;101275.00;;;18.72;41.04
62544;BME280;48597;49.030;1.822;2022-12-07T09:39:56;101272.53;;;18.74;41.03
62544;BME280;48597;49.030;1.822;2022-12-07T09:44:50;101271.66;;;18.77;40.99
62544;BME280;48597;49.030;1.822;2022-12-07T09:47:16;101273.28;;;18.78;41.15
62544;BME280;48597;49.030;1.822;2022-12-07T09:49:41;101272.03;;;18.79;41.08
62544;BME280;48597;49.030;1.822;2022-12-07T09:54:36;101271.19;;;18.82;40.77
62544;BME280;48597;49.030;1.822;2022-12-07T09:57:02;101270.72;;;18.84;40.85
62544;BME280;48597;49.030;1.822;2022-12-07T09:59:28;101263.34;;;18.86;40.77
62544;BME280;48597;49.030;1.822;2022-12-07T10:01:55;101267.38;;;18.89;40.63
62544;BME280;48597;49.030;1.822;2022-12-07T10:04:29;101271.03;;;18.89;40.66
62544;BME280;48597;49.030;1.822;2022-12-07T10:06:55;101264.47;;;18.92;40.71
62544;BME280;48597;49.030;1.822;2022-12-07T10:09:22;101266.09;;;18.94;40.62
62544;BME280;48597;49.030;1.822;2022-12-07T10:12:00;101263.56;;;18.96;40.50
62544;BME280;48597;49.030;1.822;2022-12-07T10:14:28;101261.09;;;18.98;40.46
62544;BME280;48597;49.030;1.822;2022-12-07T10:16:55;101268.00;;;19.00;40.59
62544;BME280;48597;49.030;1.822;2022-12-07T10:19:29;101268.38;;;19.02;40.54
62544;BME280;48597;49.030;1.822;2022-12-07T10:22:09;101265.06;;;19.04;40.46
62544;BME280;48597;49.030;1.822;2022-12-07T10:24:35;101260.19;;;19.04;40.38
62544;BME280;48597;49.030;1.822;2022-12-07T10:27:05;101254.84;;;19.06;40.37
62544;BME280;48597;49.030;1.822;2022-12-07T10:29:33;101256.44;;;19.07;40.42
62544;BME280;48597;49.030;1.822;2022-12-07T10:32:21;101256.44;;;19.07;40.36
62544;BME280;48597;49.030;1.822;2022-12-07T10:34:54;101252.78;;;19.07;40.43
62544;BME280;48597;49.030;1.822;2022-12-07T10:37:40;101250.28;;;19.09;40.53
62544;BME280;48597;49.030;1.822;2022-12-07T10:43:00;101247.06;;;19.07;40.51
62544;BME280;48597;49.030;1.822;2022-12-07T10:45:26;101237.69;;;19.06;40.56
62544;BME280;48597;49.030;1.822;2022-12-07T11:12:10;101183.97;;;18.98;40.50
62544;BME280;48597;49.030;1.822;2022-12-07T11:15:08;101181.53;;;18.96;40.71
62544;BME280;48597;49.030;1.822;2022-12-07T11:17:54;101171.81;;;18.94;40.70
62544;BME280;48597;49.030;1.822;2022-12-07T11:25:43;101169.81;;;18.90;40.27
62544;BME280;48597;49.030;1.822;2022-12-07T11:33:19;101155.59;;;18.87;40.42
62544;BME280;48597;49.030;1.822;2022-12-07T11:38:23;101144.19;;;18.87;40.46
62544;BME280;48597;49.030;1.822;2022-12-07T11:40:53;101148.28;;;18.86;40.42
62544;BME280;48597;49.030;1.822;2022-12-07T11:46:12;101145.41;;;18.86;40.79
62544;BME280;48597;49.030;1.822;2022-12-07T11:48:46;101143.38;;;18.86;40.65
62544;BME280;48597;49.030;1.822;2022-12-07T11:51:16;101138.47;;;18.87;40.67
62544;BME280;48597;49.030;1.822;2022-12-07T11:54:04;101136.41;;;18.87;40.71
62544;BME280;48597;49.030;1.822;2022-12-07T11:56:35;101132.75;;;18.87;40.86
62544;BME280;48597;49.030;1.822;2022-12-07T12:04:23;101126.97;;;18.90;41.21
62544;BME280;48597;49.030;1.822;2022-12-07T12:06:50;101118.78;;;18.92;41.40
62544;BME280;48597;49.030;1.822;2022-12-07T12:09:27;101127.34;;;18.92;41.26
62544;BME280;48597;49.030;1.822;2022-12-07T12:20:51;101114.75;;;18.90;41.68
62544;BME280;48597;49.030;1.822;2022-12-07T12:26:01;101112.75;;;18.87;41.85
62544;BME280;48597;49.030;1.822;2022-12-07T12:31:17;101104.25;;;18.83;41.96
62544;BME280;48597;49.030;1.822;2022-12-07T12:33:58;101103.44;;;18.83;41.96
62544;BME280;48597;49.030;1.822;2022-12-07T12:56:54;101081.19;;;18.74;43.32
62544;BME280;48597;49.030;1.822;2022-12-07T12:59:36;101073.50;;;18.71;43.33
62544;BME280;48597;49.030;1.822;2022-12-07T13:07:10;101070.72;;;18.68;43.19
62544;BME280;48597;49.030;1.822;2022-12-07T13:09:43;101069.56;;;18.65;42.96
62544;BME280;48597;49.030;1.822;2022-12-07T13:12:14;101063.03;;;18.65;42.89
62544;BME280;48597;49.030;1.822;2022-12-07T13:14:57;101065.09;;;18.64;43.04
62544;BME280;48597;49.030;1.822;2022-12-07T13:20:05;101054.09;;;18.63;43.26
62544;BME280;48597;49.030;1.822;2022-12-07T13:25:23;101057.81;;;18.60;43.28
62544;BME280;48597;49.030;1.822;2022-12-07T13:28:22;101052.91;;;18.60;43.71
62544;BME280;48597;49.030;1.822;2022-12-07T13:33:38;101054.53;;;18.61;43.01
62544;BME280;48597;49.030;1.822;2022-12-07T13:36:03;101052.47;;;18.62;42.88
62544;BME280;48597;49.030;1.822;2022-12-07T13:38:34;101047.59;;;18.62;42.73
62544;BME280;48597;49.030;1.822;2022-12-07T13:43:29;101037.34;;;18.65;42.50
62544;BME280;48597;49.030;1.822;2022-12-07T13:45:59;101036.09;;;18.66;42.40
62544;BME280;48597;49.030;1.822;2022-12-07T13:48:33;101032.81;;;18.67;42.53
62544;BME280;48597;49.030;1.822;2022-12-07T13:51:01;101030.31;;;18.69;42.40
62544;BME280;48597;49.030;1.822;2022-12-07T13:53:27;101028.63;;;18.72;42.18
62544;BME280;48597;49.030;1.822;2022-12-07T13:55:59;101019.63;;;18.73;42.29
62544;BME280;48597;49.030;1.822;2022-12-07T13:58:30;101021.22;;;18.74;42.25
62544;BME280;48597;49.030;1.822;2022-12-07T14:00:57;101026.13;;;18.74;42.42
62544;BME280;48597;49.030;1.822;2022-12-07T14:03:32;101016.31;;;18.75;42.25
62544;BME280;48597;49.030;1.822;2022-12-07T14:06:06;101008.94;;;18.77;42.32
62544;BME280;48597;49.030;1.822;2022-12-07T14:08:32;101006.44;;;18.79;42.33
62544;BME280;48597;49.030;1.822;2022-12-07T14:10:57;101000.31;;;18.81;42.31
62544;BME280;48597;49.030;1.822;2022-12-07T14:13:37;100999.88;;;18.82;42.46
62544;BME280;48597;49.030;1.822;2022-12-07T14:16:19;100998.16;;;18.85;42.42
62544;BME280;48597;49.030;1.822;2022-12-07T14:18:47;100995.66;;;18.87;42.46
62544;BME280;48597;49.030;1.822;2022-12-07T14:23:38;100994.34;;;18.91;42.37
62544;BME280;48597;49.030;1.822;2022-12-07T14:26:11;100990.25;;;18.92;42.32
62544;BME280;48597;49.030;1.822;2022-12-07T14:28:38;100992.31;;;18.92;42.32
62544;BME280;48597;49.030;1.822;2022-12-07T14:31:11;100987.41;;;18.92;42.43
62544;BME280;48597;49.030;1.822;2022-12-07T14:33:38;100985.34;;;18.93;42.46
62544;BME280;48597;49.030;1.822;2022-12-07T14:36:04;100983.72;;;18.92;42.44
62544;BME280;48597;49.030;1.822;2022-12-07T14:38:29;100993.91;;;18.93;42.32
62544;BME280;48597;49.030;1.822;2022-12-07T14:40:55;100989.81;;;18.94;42.54
62544;BME280;48597;49.030;1.822;2022-12-07T14:43:42;100983.28;;;18.94;42.35
62544;BME280;48597;49.030;1.822;2022-12-07T14:46:09;100987.75;;;18.95;42.51
62544;BME280;48597;49.030;1.822;2022-12-07T14:48:34;100982.06;;;18.95;42.44
62544;BME280;48597;49.030;1.822;2022-12-07T14:50:59;100991.44;;;18.95;42.25
62544;BME280;48597;49.030;1.822;2022-12-07T14:53:29;100987.28;;;18.96;42.41
62544;BME280;48597;49.030;1.822;2022-12-07T14:55:56;100984.44;;;18.96;42.40
62544;BME280;48597;49.030;1.822;2022-12-07T14:58:22;100983.19;;;18.97;42.46
62544;BME280;48597;49.030;1.822;2022-12-07T15:00:47;100984.00;;;18.98;42.40
62544;BME280;48597;49.030;1.822;2022-12-07T15:03:13;100988.47;;;18.99;42.40
62544;BME280;48597;49.030;1.822;2022-12-07T15:05:39;100981.94;;;18.98;42.38
62544;BME280;48597;49.030;1.822;2022-12-07T15:08:06;100985.19;;;19.00;42.49